Poseidon — WDG3989 — position and weather

sailwx.info

Track history (hours):
 
Tides and Currents Weather Stations Pressure Air Temp Water Temp Dewpoint Dewpoint Depression Visibility Wind Speed Wind Dir Waves Ship Positions

Poseidon

Owner: Deloach Marine Services, LLC, Port Allen, LA. More information available from US FCC via Universal Licensing System and Coast Guard Vessel Documentation Center.

Last reported at 2017-Nov-18 11:39 UTC. Time now 2017-Nov-19 17:35 UTC.
Position N 29°46' W 095°05'.

Length 24 m; draft 2.7 m.

Type: Towing. MMSI: 367531780.

Date/timePositionNaut miles runAvg speedWind from/ knotsBaromVisibWave heightAir tempDewpointWater temp
2017-Nov-18 11:39N 29°46' W 095°05'1 5.1
2017-Nov-18 11:30N 29°46' W 095°05'2 0.7
2017-Nov-18 09:23N 29°47' W 095°04'1 1.4
2017-Nov-18 08:59N 29°47' W 095°05'1 0.3
2017-Nov-18 06:56N 29°47' W 095°04'0 0.0
2017-Nov-18 05:26N 29°47' W 095°04'1 0.4
2017-Nov-18 02:23N 29°46' W 095°05'2 3.9
2017-Nov-18 01:50N 29°44' W 095°03'2 6.1
2017-Nov-18 01:27N 29°43' W 095°01'3 6.2
2017-Nov-18 00:59N 29°41' W 094°59'3 6.7
2017-Nov-18 00:29N 29°38' W 094°58'3 6.4
2017-Nov-18 00:00N 29°35' W 094°56'3 6.3
2017-Nov-17 23:30N 29°33' W 094°54'4 0.2
2017-Nov-16 21:20N 29°29' W 094°52'2 6.5
2017-Nov-16 21:00N 29°31' W 094°53'4 7.1
2017-Nov-16 20:30N 29°34' W 094°55'4 7.2
2017-Nov-16 20:00N 29°37' W 094°57'3 6.8
2017-Nov-16 19:30N 29°40' W 094°59'3 6.6
2017-Nov-16 19:00N 29°42' W 095°01'4 6.9
2017-Nov-16 18:28N 29°45' W 095°04'2 0.9
2017-Nov-16 16:12N 29°47' W 095°04'0 1.7
2017-Nov-16 16:00N 29°47' W 095°05'2 1.3
2017-Nov-16 14:48N 29°45' W 095°06'2 0.4
2017-Nov-16 09:42N 29°47' W 095°04'0 0.0
2017-Nov-16 02:53N 29°47' W 095°04'0 0.3
2017-Nov-16 01:33N 29°47' W 095°04'0 0.0
2017-Nov-16 00:27N 29°47' W 095°05'0 0.7
2017-Nov-15 23:54N 29°46' W 095°05'3 4.3
2017-Nov-15 23:12N 29°44' W 095°03'2 5.5
2017-Nov-15 22:54N 29°43' W 095°01'2 5.1
2017-Nov-15 22:29N 29°42' W 094°59'3 5.7
2017-Nov-15 22:00N 29°39' W 094°58'3 5.6
2017-Nov-15 21:30N 29°36' W 094°57'3 5.8
2017-Nov-15 21:00N 29°34' W 094°55'3 5.8
2017-Nov-15 20:30N 29°32' W 094°53'70 3.6
2017-Nov-15 00:46N 30°04' W 093°41'0 1.3
2017-Nov-15 00:29N 30°04' W 093°41'2 3.9
2017-Nov-15 00:00N 30°04' W 093°39'2 4.5
2017-Nov-14 23:30N 30°04' W 093°36'2 4.4
2017-Nov-14 23:00N 30°04' W 093°33'2 4.5
2017-Nov-14 22:30N 30°04' W 093°31'2 4.6
2017-Nov-14 22:00N 30°04' W 093°28'2 4.7
2017-Nov-14 21:30N 30°04' W 093°25'2 4.7
2017-Nov-14 21:00N 30°04' W 093°23'2 4.2
2017-Nov-14 20:30N 30°04' W 093°20'2 4.6
2017-Nov-14 20:00N 30°06' W 093°19'1 2.7
2017-Nov-14 19:30N 30°05' W 093°18'1 2.7
2017-Nov-14 19:00N 30°04' W 093°16'1 1.1
2017-Nov-14 18:30N 30°04' W 093°16'0 0.1
2017-Nov-14 18:01N 30°04' W 093°16'0 0.2
2017-Nov-14 17:30N 30°04' W 093°16'2 3.0
2017-Nov-14 17:00N 30°02' W 093°15'1 2.7
2017-Nov-14 16:30N 30°02' W 093°14'2 4.3
2017-Nov-14 16:00N 29°60' W 093°13'2 4.7
2017-Nov-14 15:30N 29°58' W 093°11'2 4.6
2017-Nov-14 15:00N 29°56' W 093°10'2 4.6
2017-Nov-14 14:30N 29°56' W 093°07'2 4.1
2017-Nov-14 13:59N 29°56' W 093°04'2 4.3
2017-Nov-14 13:30N 29°56' W 093°02'34 3.9
2017-Nov-14 04:43N 29°52' W 092°23'1 4.2
2017-Nov-14 04:23N 29°51' W 092°22'2 4.2
2017-Nov-14 03:59N 29°51' W 092°20'2 4.0
2017-Nov-14 03:29N 29°50' W 092°18'2 3.9
2017-Nov-14 02:59N 29°49' W 092°16'2 4.6
2017-Nov-14 02:29N 29°48' W 092°14'1 2.5
2017-Nov-14 01:59N 29°47' W 092°12'1 2.1
2017-Nov-14 01:30N 29°47' W 092°11'1 1.2
2017-Nov-14 01:00N 29°47' W 092°10'0 0.9
2017-Nov-14 00:30N 29°47' W 092°10'0 0.0
2017-Nov-13 23:59N 29°47' W 092°10'0 0.0
2017-Nov-13 23:29N 29°47' W 092°10'0 0.0
2017-Nov-13 22:59N 29°47' W 092°10'0 0.0
2017-Nov-13 22:30N 29°47' W 092°10'0 0.0
2017-Nov-13 22:00N 29°47' W 092°10'12 0.3
2017-Nov-12 10:43N 29°51' W 091°57'1 3.8
2017-Nov-12 10:29N 29°50' W 091°58'2 3.8
2017-Nov-12 09:59N 29°50' W 091°60'2 3.9
2017-Nov-12 09:29N 29°49' W 092°02'2 3.9
2017-Nov-12 08:59N 29°48' W 092°04'2 4.0
2017-Nov-12 08:29N 29°48' W 092°06'16 2.5
2017-Nov-12 01:59N 29°53' W 092°24'90 2.5
2017-Nov-10 14:36N 29°44' W 094°06'42 4.1
2017-Nov-10 04:26N 29°29' W 094°52'3 6.0
2017-Nov-10 03:58N 29°31' W 094°53'3 5.8
2017-Nov-10 03:30N 29°34' W 094°55'3 6.6
2017-Nov-10 03:00N 29°36' W 094°57'3 7.0
2017-Nov-10 02:30N 29°40' W 094°58'3 6.8
2017-Nov-10 02:00N 29°42' W 095°01'3 6.3
2017-Nov-10 01:30N 29°44' W 095°04'3 4.4
2017-Nov-10 00:55N 29°47' W 095°04'0 0.2
2017-Nov-10 00:28N 29°47' W 095°04'0 0.0
2017-Nov-09 20:43N 29°47' W 095°04'0 0.1
2017-Nov-09 17:19N 29°47' W 095°05'1 3.4
2017-Nov-09 17:00N 29°46' W 095°05'1 0.6
2017-Nov-09 14:54N 29°47' W 095°04'0 0.3
2017-Nov-09 14:11N 29°47' W 095°04'1 1.4
2017-Nov-09 13:37N 29°47' W 095°05'1 0.1
2017-Nov-09 03:52N 29°47' W 095°04'0 0.2
2017-Nov-09 01:05N 29°47' W 095°04'1 4.3
2017-Nov-09 00:55N 29°46' W 095°05'1 2.7
2017-Nov-09 00:27N 29°45' W 095°06'  
Track history (hours):
 
Tides and Currents Weather Stations Pressure Air Temp Water Temp Dewpoint Dewpoint Depression Visibility Wind Speed Wind Dir Waves Ship Positions

Poseidon

Owner: Deloach Marine Services, LLC, Port Allen, LA. More information available from US FCC via Universal Licensing System and Coast Guard Vessel Documentation Center.

Last reported at 2017-Nov-18 11:39 UTC. Time now 2017-Nov-19 17:35 UTC.
Position N 29°46' W 095°05'.

Length 24 m; draft 2.7 m.

Type: Towing. MMSI: 367531780.

Date/timePositionNaut miles runAvg speedWind from/ knotsBaromVisibWave heightAir tempDewpointWater temp
2017-Nov-18 11:39N 29°46' W 095°05'1 5.1
2017-Nov-18 11:30N 29°46' W 095°05'2 0.7
2017-Nov-18 09:23N 29°47' W 095°04'1 1.4
2017-Nov-18 08:59N 29°47' W 095°05'1 0.3
2017-Nov-18 06:56N 29°47' W 095°04'0 0.0
2017-Nov-18 05:26N 29°47' W 095°04'1 0.4
2017-Nov-18 02:23N 29°46' W 095°05'2 3.9
2017-Nov-18 01:50N 29°44' W 095°03'2 6.1
2017-Nov-18 01:27N 29°43' W 095°01'3 6.2
2017-Nov-18 00:59N 29°41' W 094°59'3 6.7
2017-Nov-18 00:29N 29°38' W 094°58'3 6.4
2017-Nov-18 00:00N 29°35' W 094°56'3 6.3
2017-Nov-17 23:30N 29°33' W 094°54'4 0.2
2017-Nov-16 21:20N 29°29' W 094°52'2 6.5
2017-Nov-16 21:00N 29°31' W 094°53'4 7.1
2017-Nov-16 20:30N 29°34' W 094°55'4 7.2
2017-Nov-16 20:00N 29°37' W 094°57'3 6.8
2017-Nov-16 19:30N 29°40' W 094°59'3 6.6
2017-Nov-16 19:00N 29°42' W 095°01'4 6.9
2017-Nov-16 18:28N 29°45' W 095°04'2 0.9
2017-Nov-16 16:12N 29°47' W 095°04'0 1.7
2017-Nov-16 16:00N 29°47' W 095°05'2 1.3
2017-Nov-16 14:48N 29°45' W 095°06'2 0.4
2017-Nov-16 09:42N 29°47' W 095°04'0 0.0
2017-Nov-16 02:53N 29°47' W 095°04'0 0.3
2017-Nov-16 01:33N 29°47' W 095°04'0 0.0
2017-Nov-16 00:27N 29°47' W 095°05'0 0.7
2017-Nov-15 23:54N 29°46' W 095°05'3 4.3
2017-Nov-15 23:12N 29°44' W 095°03'2 5.5
2017-Nov-15 22:54N 29°43' W 095°01'2 5.1
2017-Nov-15 22:29N 29°42' W 094°59'3 5.7
2017-Nov-15 22:00N 29°39' W 094°58'3 5.6
2017-Nov-15 21:30N 29°36' W 094°57'3 5.8
2017-Nov-15 21:00N 29°34' W 094°55'3 5.8
2017-Nov-15 20:30N 29°32' W 094°53'70 3.6
2017-Nov-15 00:46N 30°04' W 093°41'0 1.3
2017-Nov-15 00:29N 30°04' W 093°41'2 3.9
2017-Nov-15 00:00N 30°04' W 093°39'2 4.5
2017-Nov-14 23:30N 30°04' W 093°36'2 4.4
2017-Nov-14 23:00N 30°04' W 093°33'2 4.5
2017-Nov-14 22:30N 30°04' W 093°31'2 4.6
2017-Nov-14 22:00N 30°04' W 093°28'2 4.7
2017-Nov-14 21:30N 30°04' W 093°25'2 4.7
2017-Nov-14 21:00N 30°04' W 093°23'2 4.2
2017-Nov-14 20:30N 30°04' W 093°20'2 4.6
2017-Nov-14 20:00N 30°06' W 093°19'1 2.7
2017-Nov-14 19:30N 30°05' W 093°18'1 2.7
2017-Nov-14 19:00N 30°04' W 093°16'1 1.1
2017-Nov-14 18:30N 30°04' W 093°16'0 0.1
2017-Nov-14 18:01N 30°04' W 093°16'0 0.2
2017-Nov-14 17:30N 30°04' W 093°16'2 3.0
2017-Nov-14 17:00N 30°02' W 093°15'1 2.7
2017-Nov-14 16:30N 30°02' W 093°14'2 4.3
2017-Nov-14 16:00N 29°60' W 093°13'2 4.7
2017-Nov-14 15:30N 29°58' W 093°11'2 4.6
2017-Nov-14 15:00N 29°56' W 093°10'2 4.6
2017-Nov-14 14:30N 29°56' W 093°07'2 4.1
2017-Nov-14 13:59N 29°56' W 093°04'2 4.3
2017-Nov-14 13:30N 29°56' W 093°02'34 3.9
2017-Nov-14 04:43N 29°52' W 092°23'1 4.2
2017-Nov-14 04:23N 29°51' W 092°22'2 4.2
2017-Nov-14 03:59N 29°51' W 092°20'2 4.0
2017-Nov-14 03:29N 29°50' W 092°18'2 3.9
2017-Nov-14 02:59N 29°49' W 092°16'2 4.6
2017-Nov-14 02:29N 29°48' W 092°14'1 2.5
2017-Nov-14 01:59N 29°47' W 092°12'1 2.1
2017-Nov-14 01:30N 29°47' W 092°11'1 1.2
2017-Nov-14 01:00N 29°47' W 092°10'0 0.9
2017-Nov-14 00:30N 29°47' W 092°10'0 0.0
2017-Nov-13 23:59N 29°47' W 092°10'0 0.0
2017-Nov-13 23:29N 29°47' W 092°10'0 0.0
2017-Nov-13 22:59N 29°47' W 092°10'0 0.0
2017-Nov-13 22:30N 29°47' W 092°10'0 0.0
2017-Nov-13 22:00N 29°47' W 092°10'12 0.3
2017-Nov-12 10:43N 29°51' W 091°57'1 3.8
2017-Nov-12 10:29N 29°50' W 091°58'2 3.8
2017-Nov-12 09:59N 29°50' W 091°60'2 3.9
2017-Nov-12 09:29N 29°49' W 092°02'2 3.9
2017-Nov-12 08:59N 29°48' W 092°04'2 4.0
2017-Nov-12 08:29N 29°48' W 092°06'16 2.5
2017-Nov-12 01:59N 29°53' W 092°24'90 2.5
2017-Nov-10 14:36N 29°44' W 094°06'42 4.1
2017-Nov-10 04:26N 29°29' W 094°52'3 6.0
2017-Nov-10 03:58N 29°31' W 094°53'3 5.8
2017-Nov-10 03:30N 29°34' W 094°55'3 6.6
2017-Nov-10 03:00N 29°36' W 094°57'3 7.0
2017-Nov-10 02:30N 29°40' W 094°58'3 6.8
2017-Nov-10 02:00N 29°42' W 095°01'3 6.3
2017-Nov-10 01:30N 29°44' W 095°04'3 4.4
2017-Nov-10 00:55N 29°47' W 095°04'0 0.2
2017-Nov-10 00:28N 29°47' W 095°04'0 0.0
2017-Nov-09 20:43N 29°47' W 095°04'0 0.1
2017-Nov-09 17:19N 29°47' W 095°05'1 3.4
2017-Nov-09 17:00N 29°46' W 095°05'1 0.6
2017-Nov-09 14:54N 29°47' W 095°04'0 0.3
2017-Nov-09 14:11N 29°47' W 095°04'1 1.4
2017-Nov-09 13:37N 29°47' W 095°05'1 0.1
2017-Nov-09 03:52N 29°47' W 095°04'0 0.2
2017-Nov-09 01:05N 29°47' W 095°04'1 4.3
2017-Nov-09 00:55N 29°46' W 095°05'1 2.7
2017-Nov-09 00:27N 29°45' W 095°06'  

Dump ship's entire track history